sensor_id;sensor_type;location;lat;lon;timestamp;P1;durP1;ratioP1;P2;durP2;ratioP2
23519;SDS011;11936;50.820;4.336;2023-12-22T00:01:08;10.15;;;2.78;;
23519;SDS011;11936;50.820;4.336;2023-12-22T00:03:34;12.88;;;3.13;;
23519;SDS011;11936;50.820;4.336;2023-12-22T00:06:00;18.73;;;3.70;;
23519;SDS011;11936;50.820;4.336;2023-12-22T00:08:25;12.90;;;3.17;;
23519;SDS011;11936;50.820;4.336;2023-12-22T00:10:51;15.48;;;3.10;;
23519;SDS011;11936;50.820;4.336;2023-12-22T00:13:17;18.02;;;3.00;;
23519;SDS011;11936;50.820;4.336;2023-12-22T00:15:42;12.90;;;2.65;;
23519;SDS011;11936;50.820;4.336;2023-12-22T00:18:08;14.48;;;3.10;;
23519;SDS011;11936;50.820;4.336;2023-12-22T00:23:10;11.73;;;2.90;;
23519;SDS011;11936;50.820;4.336;2023-12-22T00:25:36;9.13;;;2.03;;
23519;SDS011;11936;50.820;4.336;2023-12-22T00:28:01;8.57;;;1.90;;
23519;SDS011;11936;50.820;4.336;2023-12-22T00:30:27;7.43;;;1.70;;
23519;SDS011;11936;50.820;4.336;2023-12-22T00:32:52;8.90;;;1.60;;
23519;SDS011;11936;50.820;4.336;2023-12-22T00:35:18;6.95;;;1.80;;
23519;SDS011;11936;50.820;4.336;2023-12-22T00:37:44;12.20;;;2.33;;
23519;SDS011;11936;50.820;4.336;2023-12-22T00:40:09;8.75;;;2.13;;
23519;SDS011;11936;50.820;4.336;2023-12-22T00:42:35;13.98;;;2.40;;
23519;SDS011;11936;50.820;4.336;2023-12-22T00:45:01;6.55;;;2.25;;
23519;SDS011;11936;50.820;4.336;2023-12-22T00:47:27;10.80;;;2.45;;
23519;SDS011;11936;50.820;4.336;2023-12-22T00:49:53;9.35;;;2.50;;
23519;SDS011;11936;50.820;4.336;2023-12-22T00:52:18;14.77;;;3.05;;
23519;SDS011;11936;50.820;4.336;2023-12-22T00:54:44;13.55;;;2.63;;
23519;SDS011;11936;50.820;4.336;2023-12-22T00:57:10;14.43;;;3.17;;
23519;SDS011;11936;50.820;4.336;2023-12-22T00:59:36;16.17;;;3.13;;
23519;SDS011;11936;50.820;4.336;2023-12-22T01:02:02;9.57;;;2.55;;
23519;SDS011;11936;50.820;4.336;2023-12-22T01:04:27;17.92;;;3.95;;
23519;SDS011;11936;50.820;4.336;2023-12-22T01:06:53;18.33;;;3.22;;
23519;SDS011;11936;50.820;4.336;2023-12-22T01:09:19;18.55;;;3.70;;
23519;SDS011;11936;50.820;4.336;2023-12-22T01:11:45;23.55;;;4.30;;
23519;SDS011;11936;50.820;4.336;2023-12-22T01:14:11;20.42;;;3.50;;
23519;SDS011;11936;50.820;4.336;2023-12-22T01:16:38;16.95;;;3.88;;
23519;SDS011;11936;50.820;4.336;2023-12-22T01:19:04;14.32;;;3.53;;
23519;SDS011;11936;50.820;4.336;2023-12-22T01:21:30;21.00;;;3.42;;
23519;SDS011;11936;50.820;4.336;2023-12-22T01:23:56;16.50;;;3.33;;
23519;SDS011;11936;50.820;4.336;2023-12-22T01:26:23;12.43;;;3.40;;
23519;SDS011;11936;50.820;4.336;2023-12-22T01:28:49;15.40;;;3.83;;
23519;SDS011;11936;50.820;4.336;2023-12-22T01:31:15;25.08;;;4.25;;
23519;SDS011;11936;50.820;4.336;2023-12-22T01:33:40;15.85;;;3.88;;
23519;SDS011;11936;50.820;4.336;2023-12-22T01:36:06;20.08;;;3.25;;
23519;SDS011;11936;50.820;4.336;2023-12-22T01:38:32;19.83;;;3.35;;
23519;SDS011;11936;50.820;4.336;2023-12-22T01:40:57;11.60;;;3.88;;
23519;SDS011;11936;50.820;4.336;2023-12-22T01:43:23;17.50;;;3.80;;
23519;SDS011;11936;50.820;4.336;2023-12-22T01:45:49;15.65;;;3.30;;
23519;SDS011;11936;50.820;4.336;2023-12-22T01:48:17;12.70;;;3.00;;
23519;SDS011;11936;50.820;4.336;2023-12-22T01:50:43;14.05;;;3.70;;
23519;SDS011;11936;50.820;4.336;2023-12-22T01:53:09;20.67;;;3.83;;
23519;SDS011;11936;50.820;4.336;2023-12-22T01:55:35;18.73;;;3.42;;
23519;SDS011;11936;50.820;4.336;2023-12-22T01:58:01;11.27;;;3.30;;
23519;SDS011;11936;50.820;4.336;2023-12-22T02:00:27;17.48;;;3.85;;
23519;SDS011;11936;50.820;4.336;2023-12-22T02:02:52;16.13;;;4.00;;
23519;SDS011;11936;50.820;4.336;2023-12-22T02:05:18;19.45;;;4.45;;
23519;SDS011;11936;50.820;4.336;2023-12-22T02:07:44;22.73;;;4.80;;
23519;SDS011;11936;50.820;4.336;2023-12-22T02:10:11;16.58;;;3.35;;
23519;SDS011;11936;50.820;4.336;2023-12-22T02:12:37;18.15;;;3.85;;
23519;SDS011;11936;50.820;4.336;2023-12-22T02:15:02;20.92;;;4.43;;
23519;SDS011;11936;50.820;4.336;2023-12-22T02:20:16;25.95;;;4.43;;
23519;SDS011;11936;50.820;4.336;2023-12-22T02:22:42;15.63;;;3.60;;
23519;SDS011;11936;50.820;4.336;2023-12-22T02:25:08;19.92;;;4.25;;
23519;SDS011;11936;50.820;4.336;2023-12-22T02:27:34;18.67;;;3.72;;
23519;SDS011;11936;50.820;4.336;2023-12-22T02:30:14;18.08;;;4.32;;
23519;SDS011;11936;50.820;4.336;2023-12-22T02:32:53;12.88;;;2.80;;
23519;SDS011;11936;50.820;4.336;2023-12-22T02:35:23;14.75;;;3.22;;
23519;SDS011;11936;50.820;4.336;2023-12-22T02:37:53;13.20;;;2.63;;
23519;SDS011;11936;50.820;4.336;2023-12-22T02:40:22;8.68;;;2.78;;
23519;SDS011;11936;50.820;4.336;2023-12-22T02:42:50;9.50;;;2.67;;
23519;SDS011;11936;50.820;4.336;2023-12-22T02:45:18;10.73;;;3.15;;
23519;SDS011;11936;50.820;4.336;2023-12-22T02:47:45;15.93;;;3.38;;
23519;SDS011;11936;50.820;4.336;2023-12-22T02:50:11;15.77;;;4.03;;
23519;SDS011;11936;50.820;4.336;2023-12-22T02:52:38;7.10;;;2.03;;
23519;SDS011;11936;50.820;4.336;2023-12-22T02:55:05;11.02;;;2.45;;
23519;SDS011;11936;50.820;4.336;2023-12-22T02:57:31;8.40;;;2.53;;
23519;SDS011;11936;50.820;4.336;2023-12-22T02:59:57;9.50;;;2.22;;
23519;SDS011;11936;50.820;4.336;2023-12-22T03:02:22;9.85;;;2.25;;
23519;SDS011;11936;50.820;4.336;2023-12-22T03:04:48;9.20;;;2.08;;
23519;SDS011;11936;50.820;4.336;2023-12-22T03:07:14;10.75;;;2.47;;
23519;SDS011;11936;50.820;4.336;2023-12-22T03:09:41;10.07;;;2.35;;
23519;SDS011;11936;50.820;4.336;2023-12-22T03:12:07;12.73;;;3.03;;
23519;SDS011;11936;50.820;4.336;2023-12-22T03:14:33;11.52;;;2.30;;
23519;SDS011;11936;50.820;4.336;2023-12-22T03:17:00;11.90;;;2.78;;
23519;SDS011;11936;50.820;4.336;2023-12-22T03:19:26;13.27;;;3.08;;
23519;SDS011;11936;50.820;4.336;2023-12-22T03:21:52;18.98;;;3.78;;
23519;SDS011;11936;50.820;4.336;2023-12-22T03:24:17;14.80;;;2.95;;
23519;SDS011;11936;50.820;4.336;2023-12-22T03:26:44;11.75;;;2.92;;
23519;SDS011;11936;50.820;4.336;2023-12-22T03:29:10;16.55;;;3.33;;
23519;SDS011;11936;50.820;4.336;2023-12-22T03:31:36;17.02;;;3.50;;
23519;SDS011;11936;50.820;4.336;2023-12-22T03:34:02;16.23;;;4.15;;
23519;SDS011;11936;50.820;4.336;2023-12-22T03:36:27;21.27;;;5.80;;
23519;SDS011;11936;50.820;4.336;2023-12-22T03:38:53;20.02;;;3.75;;
23519;SDS011;11936;50.820;4.336;2023-12-22T03:41:19;14.77;;;3.35;;
23519;SDS011;11936;50.820;4.336;2023-12-22T03:43:44;16.30;;;3.85;;
23519;SDS011;11936;50.820;4.336;2023-12-22T03:46:10;19.23;;;4.05;;
23519;SDS011;11936;50.820;4.336;2023-12-22T03:48:35;16.63;;;3.00;;
23519;SDS011;11936;50.820;4.336;2023-12-22T03:51:01;15.80;;;3.72;;
23519;SDS011;11936;50.820;4.336;2023-12-22T03:53:27;13.18;;;3.58;;
23519;SDS011;11936;50.820;4.336;2023-12-22T03:55:52;8.82;;;2.85;;
23519;SDS011;11936;50.820;4.336;2023-12-22T03:58:18;8.27;;;2.40;;
23519;SDS011;11936;50.820;4.336;2023-12-22T04:00:43;12.27;;;2.65;;
23519;SDS011;11936;50.820;4.336;2023-12-22T04:03:09;15.98;;;3.35;;
23519;SDS011;11936;50.820;4.336;2023-12-22T04:05:35;18.17;;;3.72;;
23519;SDS011;11936;50.820;4.336;2023-12-22T04:08:00;12.52;;;3.95;;
23519;SDS011;11936;50.820;4.336;2023-12-22T04:10:26;18.52;;;3.25;;
23519;SDS011;11936;50.820;4.336;2023-12-22T04:12:52;20.35;;;3.90;;
23519;SDS011;11936;50.820;4.336;2023-12-22T04:15:17;18.60;;;4.32;;
23519;SDS011;11936;50.820;4.336;2023-12-22T04:17:43;14.23;;;3.08;;
23519;SDS011;11936;50.820;4.336;2023-12-22T04:20:09;16.85;;;3.40;;
23519;SDS011;11936;50.820;4.336;2023-12-22T04:22:34;19.45;;;5.20;;
23519;SDS011;11936;50.820;4.336;2023-12-22T04:25:00;18.08;;;4.07;;
23519;SDS011;11936;50.820;4.336;2023-12-22T04:27:26;10.27;;;3.60;;
23519;SDS011;11936;50.820;4.336;2023-12-22T04:29:51;15.07;;;3.72;;
23519;SDS011;11936;50.820;4.336;2023-12-22T04:32:17;19.17;;;3.35;;
23519;SDS011;11936;50.820;4.336;2023-12-22T04:34:42;25.35;;;4.80;;
23519;SDS011;11936;50.820;4.336;2023-12-22T04:37:08;15.55;;;4.00;;
23519;SDS011;11936;50.820;4.336;2023-12-22T04:39:34;17.65;;;3.38;;
23519;SDS011;11936;50.820;4.336;2023-12-22T04:42:00;21.05;;;4.20;;
23519;SDS011;11936;50.820;4.336;2023-12-22T04:44:25;20.55;;;3.90;;
23519;SDS011;11936;50.820;4.336;2023-12-22T04:46:51;15.15;;;3.95;;
23519;SDS011;11936;50.820;4.336;2023-12-22T04:49:17;16.65;;;4.15;;
23519;SDS011;11936;50.820;4.336;2023-12-22T04:51:43;19.67;;;3.92;;
23519;SDS011;11936;50.820;4.336;2023-12-22T04:54:09;13.13;;;3.63;;
23519;SDS011;11936;50.820;4.336;2023-12-22T04:56:34;19.50;;;3.80;;
23519;SDS011;11936;50.820;4.336;2023-12-22T04:59:00;24.95;;;5.88;;
23519;SDS011;11936;50.820;4.336;2023-12-22T05:01:26;16.55;;;4.97;;
23519;SDS011;11936;50.820;4.336;2023-12-22T05:03:51;22.42;;;5.10;;
23519;SDS011;11936;50.820;4.336;2023-12-22T05:06:18;28.30;;;5.80;;
23519;SDS011;11936;50.820;4.336;2023-12-22T05:08:44;24.73;;;4.68;;
23519;SDS011;11936;50.820;4.336;2023-12-22T05:11:10;29.70;;;5.30;;
23519;SDS011;11936;50.820;4.336;2023-12-22T05:13:35;24.42;;;4.35;;
23519;SDS011;11936;50.820;4.336;2023-12-22T05:16:01;18.23;;;5.07;;
23519;SDS011;11936;50.820;4.336;2023-12-22T05:18:27;22.58;;;3.85;;
23519;SDS011;11936;50.820;4.336;2023-12-22T05:20:53;28.42;;;5.10;;
23519;SDS011;11936;50.820;4.336;2023-12-22T05:23:19;19.92;;;5.25;;
23519;SDS011;11936;50.820;4.336;2023-12-22T05:25:44;20.50;;;5.15;;
23519;SDS011;11936;50.820;4.336;2023-12-22T05:28:10;26.10;;;4.88;;
23519;SDS011;11936;50.820;4.336;2023-12-22T05:30:36;19.65;;;4.25;;
23519;SDS011;11936;50.820;4.336;2023-12-22T05:33:01;20.35;;;4.72;;
23519;SDS011;11936;50.820;4.336;2023-12-22T05:35:27;28.90;;;5.32;;
23519;SDS011;11936;50.820;4.336;2023-12-22T05:37:52;23.48;;;4.85;;
23519;SDS011;11936;50.820;4.336;2023-12-22T05:40:18;20.58;;;5.38;;
23519;SDS011;11936;50.820;4.336;2023-12-22T05:42:44;19.30;;;4.85;;
23519;SDS011;11936;50.820;4.336;2023-12-22T05:45:09;22.65;;;5.13;;
23519;SDS011;11936;50.820;4.336;2023-12-22T05:47:36;28.50;;;5.38;;
23519;SDS011;11936;50.820;4.336;2023-12-22T05:50:02;22.90;;;6.07;;
23519;SDS011;11936;50.820;4.336;2023-12-22T05:52:28;18.50;;;4.25;;
23519;SDS011;11936;50.820;4.336;2023-12-22T05:54:54;22.40;;;4.78;;
23519;SDS011;11936;50.820;4.336;2023-12-22T05:57:20;19.13;;;5.75;;
23519;SDS011;11936;50.820;4.336;2023-12-22T05:59:45;24.40;;;5.05;;
23519;SDS011;11936;50.820;4.336;2023-12-22T06:02:11;20.52;;;5.10;;
23519;SDS011;11936;50.820;4.336;2023-12-22T06:04:38;14.63;;;4.72;;
23519;SDS011;11936;50.820;4.336;2023-12-22T06:07:03;26.80;;;5.47;;
23519;SDS011;11936;50.820;4.336;2023-12-22T06:09:29;19.23;;;4.75;;
23519;SDS011;11936;50.820;4.336;2023-12-22T06:11:55;22.73;;;4.07;;
23519;SDS011;11936;50.820;4.336;2023-12-22T06:14:21;20.13;;;4.35;;
23519;SDS011;11936;50.820;4.336;2023-12-22T06:16:46;17.83;;;3.63;;
23519;SDS011;11936;50.820;4.336;2023-12-22T06:19:12;16.80;;;3.47;;
23519;SDS011;11936;50.820;4.336;2023-12-22T06:21:38;23.15;;;3.47;;
23519;SDS011;11936;50.820;4.336;2023-12-22T06:24:04;21.85;;;4.70;;
23519;SDS011;11936;50.820;4.336;2023-12-22T06:26:30;14.10;;;3.75;;
23519;SDS011;11936;50.820;4.336;2023-12-22T06:28:56;17.35;;;3.67;;
23519;SDS011;11936;50.820;4.336;2023-12-22T06:31:22;17.17;;;3.08;;
23519;SDS011;11936;50.820;4.336;2023-12-22T06:33:48;10.55;;;3.17;;
23519;SDS011;11936;50.820;4.336;2023-12-22T06:36:21;14.82;;;3.35;;
23519;SDS011;11936;50.820;4.336;2023-12-22T06:38:48;13.23;;;3.20;;
23519;SDS011;11936;50.820;4.336;2023-12-22T06:41:19;12.27;;;2.80;;
23519;SDS011;11936;50.820;4.336;2023-12-22T06:43:48;13.80;;;3.08;;
23519;SDS011;11936;50.820;4.336;2023-12-22T06:46:17;13.35;;;2.33;;
23519;SDS011;11936;50.820;4.336;2023-12-22T06:48:43;13.15;;;3.15;;
23519;SDS011;11936;50.820;4.336;2023-12-22T06:51:26;12.63;;;2.63;;
23519;SDS011;11936;50.820;4.336;2023-12-22T06:53:55;10.38;;;2.47;;
23519;SDS011;11936;50.820;4.336;2023-12-22T06:56:22;8.82;;;2.67;;
23519;SDS011;11936;50.820;4.336;2023-12-22T06:58:49;6.75;;;2.30;;
23519;SDS011;11936;50.820;4.336;2023-12-22T07:01:26;10.90;;;2.72;;
23519;SDS011;11936;50.820;4.336;2023-12-22T07:03:59;14.38;;;2.58;;
23519;SDS011;11936;50.820;4.336;2023-12-22T07:06:26;8.20;;;2.38;;
23519;SDS011;11936;50.820;4.336;2023-12-22T07:08:57;11.85;;;2.05;;
23519;SDS011;11936;50.820;4.336;2023-12-22T07:11:42;7.07;;;2.28;;
23519;SDS011;11936;50.820;4.336;2023-12-22T07:14:07;9.57;;;2.63;;
23519;SDS011;11936;50.820;4.336;2023-12-22T07:16:34;8.77;;;1.90;;
23519;SDS011;11936;50.820;4.336;2023-12-22T07:19:00;6.15;;;1.90;;
23519;SDS011;11936;50.820;4.336;2023-12-22T07:21:26;9.63;;;1.85;;
23519;SDS011;11936;50.820;4.336;2023-12-22T07:23:51;6.88;;;2.30;;
23519;SDS011;11936;50.820;4.336;2023-12-22T07:26:17;9.05;;;2.03;;
23519;SDS011;11936;50.820;4.336;2023-12-22T07:28:43;7.78;;;1.85;;
23519;SDS011;11936;50.820;4.336;2023-12-22T07:31:08;5.97;;;1.92;;
23519;SDS011;11936;50.820;4.336;2023-12-22T07:33:34;9.13;;;2.00;;
23519;SDS011;11936;50.820;4.336;2023-12-22T07:36:00;7.85;;;2.08;;
23519;SDS011;11936;50.820;4.336;2023-12-22T07:38:25;5.88;;;1.83;;
23519;SDS011;11936;50.820;4.336;2023-12-22T07:40:52;5.18;;;1.67;;
23519;SDS011;11936;50.820;4.336;2023-12-22T07:43:17;7.40;;;1.67;;
23519;SDS011;11936;50.820;4.336;2023-12-22T07:45:43;6.20;;;1.67;;
23519;SDS011;11936;50.820;4.336;2023-12-22T07:48:08;6.68;;;1.90;;
23519;SDS011;11936;50.820;4.336;2023-12-22T07:50:34;6.13;;;1.60;;
23519;SDS011;11936;50.820;4.336;2023-12-22T07:53:01;6.15;;;1.85;;
23519;SDS011;11936;50.820;4.336;2023-12-22T07:55:26;5.45;;;1.88;;
23519;SDS011;11936;50.820;4.336;2023-12-22T07:57:52;3.67;;;1.58;;
23519;SDS011;11936;50.820;4.336;2023-12-22T08:00:18;5.18;;;1.20;;
23519;SDS011;11936;50.820;4.336;2023-12-22T08:02:43;2.67;;;1.50;;
23519;SDS011;11936;50.820;4.336;2023-12-22T08:05:09;1.80;;;1.25;;
23519;SDS011;11936;50.820;4.336;2023-12-22T08:07:35;3.88;;;1.50;;
23519;SDS011;11936;50.820;4.336;2023-12-22T08:10:01;3.72;;;1.20;;
23519;SDS011;11936;50.820;4.336;2023-12-22T08:12:27;4.32;;;1.05;;
23519;SDS011;11936;50.820;4.336;2023-12-22T08:14:54;0.77;;;0.77;;
23519;SDS011;11936;50.820;4.336;2023-12-22T08:17:19;2.63;;;1.20;;
23519;SDS011;11936;50.820;4.336;2023-12-22T08:19:45;1.40;;;0.98;;
23519;SDS011;11936;50.820;4.336;2023-12-22T08:22:12;1.20;;;1.00;;
23519;SDS011;11936;50.820;4.336;2023-12-22T08:27:10;2.20;;;1.27;;
23519;SDS011;11936;50.820;4.336;2023-12-22T08:29:35;2.90;;;1.15;;
23519;SDS011;11936;50.820;4.336;2023-12-22T08:32:01;3.58;;;1.33;;
23519;SDS011;11936;50.820;4.336;2023-12-22T08:34:27;4.80;;;1.38;;
23519;SDS011;11936;50.820;4.336;2023-12-22T08:36:53;3.30;;;1.48;;
23519;SDS011;11936;50.820;4.336;2023-12-22T08:39:19;5.57;;;1.48;;
23519;SDS011;11936;50.820;4.336;2023-12-22T08:41:45;3.50;;;1.55;;
23519;SDS011;11936;50.820;4.336;2023-12-22T08:44:11;2.47;;;1.73;;
23519;SDS011;11936;50.820;4.336;2023-12-22T08:46:41;3.30;;;1.45;;
23519;SDS011;11936;50.820;4.336;2023-12-22T08:49:07;5.47;;;1.80;;
23519;SDS011;11936;50.820;4.336;2023-12-22T08:51:33;5.68;;;2.15;;
23519;SDS011;11936;50.820;4.336;2023-12-22T08:53:59;6.38;;;1.92;;
23519;SDS011;11936;50.820;4.336;2023-12-22T08:56:25;2.85;;;1.80;;
23519;SDS011;11936;50.820;4.336;2023-12-22T08:58:51;4.63;;;1.70;;
23519;SDS011;11936;50.820;4.336;2023-12-22T09:01:19;6.18;;;2.45;;
23519;SDS011;11936;50.820;4.336;2023-12-22T09:03:46;4.88;;;1.95;;
23519;SDS011;11936;50.820;4.336;2023-12-22T09:06:22;3.65;;;1.77;;
23519;SDS011;11936;50.820;4.336;2023-12-22T09:08:49;3.40;;;2.25;;
23519;SDS011;11936;50.820;4.336;2023-12-22T09:11:16;4.63;;;1.90;;
23519;SDS011;11936;50.820;4.336;2023-12-22T09:13:43;7.78;;;1.90;;
23519;SDS011;11936;50.820;4.336;2023-12-22T09:16:10;6.50;;;2.10;;
23519;SDS011;11936;50.820;4.336;2023-12-22T09:18:36;5.47;;;2.22;;
23519;SDS011;11936;50.820;4.336;2023-12-22T09:21:02;3.85;;;1.52;;
23519;SDS011;11936;50.820;4.336;2023-12-22T09:23:28;4.97;;;1.95;;
23519;SDS011;11936;50.820;4.336;2023-12-22T09:25:54;6.40;;;2.70;;
23519;SDS011;11936;50.820;4.336;2023-12-22T09:28:20;7.40;;;1.77;;
23519;SDS011;11936;50.820;4.336;2023-12-22T09:30:46;7.72;;;1.55;;
23519;SDS011;11936;50.820;4.336;2023-12-22T09:33:11;3.30;;;1.73;;
23519;SDS011;11936;50.820;4.336;2023-12-22T09:35:37;8.20;;;1.83;;
23519;SDS011;11936;50.820;4.336;2023-12-22T09:38:06;11.98;;;2.00;;
23519;SDS011;11936;50.820;4.336;2023-12-22T09:40:34;2.80;;;1.58;;
23519;SDS011;11936;50.820;4.336;2023-12-22T09:43:01;4.25;;;1.52;;
23519;SDS011;11936;50.820;4.336;2023-12-22T09:45:27;4.40;;;1.73;;
23519;SDS011;11936;50.820;4.336;2023-12-22T09:47:55;4.15;;;1.65;;
23519;SDS011;11936;50.820;4.336;2023-12-22T09:50:23;5.68;;;1.60;;
23519;SDS011;11936;50.820;4.336;2023-12-22T09:52:51;6.60;;;1.85;;
23519;SDS011;11936;50.820;4.336;2023-12-22T09:55:16;4.97;;;1.92;;
23519;SDS011;11936;50.820;4.336;2023-12-22T09:57:43;4.22;;;1.33;;
23519;SDS011;11936;50.820;4.336;2023-12-22T10:00:11;2.87;;;1.33;;
23519;SDS011;11936;50.820;4.336;2023-12-22T10:02:37;3.75;;;1.60;;
23519;SDS011;11936;50.820;4.336;2023-12-22T10:05:04;5.40;;;1.70;;
23519;SDS011;11936;50.820;4.336;2023-12-22T10:07:31;5.35;;;2.50;;
23519;SDS011;11936;50.820;4.336;2023-12-22T10:09:58;2.33;;;1.43;;
23519;SDS011;11936;50.820;4.336;2023-12-22T10:12:25;2.65;;;1.45;;
23519;SDS011;11936;50.820;4.336;2023-12-22T10:14:54;5.13;;;1.63;;
23519;SDS011;11936;50.820;4.336;2023-12-22T10:17:20;3.38;;;1.40;;
23519;SDS011;11936;50.820;4.336;2023-12-22T10:19:46;5.63;;;1.23;;
23519;SDS011;11936;50.820;4.336;2023-12-22T10:22:11;6.95;;;1.70;;
23519;SDS011;11936;50.820;4.336;2023-12-22T10:24:44;1.52;;;1.33;;
23519;SDS011;11936;50.820;4.336;2023-12-22T10:27:12;2.58;;;1.60;;
23519;SDS011;11936;50.820;4.336;2023-12-22T10:29:41;3.28;;;1.40;;
23519;SDS011;11936;50.820;4.336;2023-12-22T10:32:07;4.72;;;1.70;;
23519;SDS011;11936;50.820;4.336;2023-12-22T10:37:02;4.40;;;1.65;;
23519;SDS011;11936;50.820;4.336;2023-12-22T10:39:28;4.28;;;1.55;;
23519;SDS011;11936;50.820;4.336;2023-12-22T10:41:54;6.55;;;1.83;;
23519;SDS011;11936;50.820;4.336;2023-12-22T10:44:28;2.70;;;1.85;;
23519;SDS011;11936;50.820;4.336;2023-12-22T10:46:54;3.60;;;1.50;;
23519;SDS011;11936;50.820;4.336;2023-12-22T10:49:21;3.92;;;1.42;;
23519;SDS011;11936;50.820;4.336;2023-12-22T10:51:48;3.03;;;1.30;;
23519;SDS011;11936;50.820;4.336;2023-12-22T10:54:15;3.00;;;1.30;;
23519;SDS011;11936;50.820;4.336;2023-12-22T10:56:43;4.03;;;1.33;;
23519;SDS011;11936;50.820;4.336;2023-12-22T10:59:09;4.70;;;1.40;;
23519;SDS011;11936;50.820;4.336;2023-12-22T11:01:35;3.17;;;1.20;;
23519;SDS011;11936;50.820;4.336;2023-12-22T11:04:06;1.75;;;1.30;;
23519;SDS011;11936;50.820;4.336;2023-12-22T11:06:38;5.70;;;1.48;;
23519;SDS011;11936;50.820;4.336;2023-12-22T11:09:09;5.07;;;1.20;;
23519;SDS011;11936;50.820;4.336;2023-12-22T11:11:38;3.55;;;1.60;;
23519;SDS011;11936;50.820;4.336;2023-12-22T11:14:07;7.22;;;1.42;;
23519;SDS011;11936;50.820;4.336;2023-12-22T11:19:03;2.92;;;1.30;;
23519;SDS011;11936;50.820;4.336;2023-12-22T11:21:29;3.50;;;1.38;;
23519;SDS011;11936;50.820;4.336;2023-12-22T11:23:55;1.98;;;1.20;;
23519;SDS011;11936;50.820;4.336;2023-12-22T11:26:24;2.38;;;1.52;;
23519;SDS011;11936;50.820;4.336;2023-12-22T11:28:51;1.55;;;1.30;;
23519;SDS011;11936;50.820;4.336;2023-12-22T11:31:18;2.20;;;1.40;;
23519;SDS011;11936;50.820;4.336;2023-12-22T11:33:44;3.50;;;1.23;;
23519;SDS011;11936;50.820;4.336;2023-12-22T11:36:12;5.63;;;1.30;;
23519;SDS011;11936;50.820;4.336;2023-12-22T11:38:42;2.60;;;1.40;;
23519;SDS011;11936;50.820;4.336;2023-12-22T11:41:11;3.75;;;1.20;;
23519;SDS011;11936;50.820;4.336;2023-12-22T11:43:40;3.75;;;1.27;;
23519;SDS011;11936;50.820;4.336;2023-12-22T11:46:07;4.10;;;1.38;;
23519;SDS011;11936;50.820;4.336;2023-12-22T11:48:34;1.73;;;1.20;;
23519;SDS011;11936;50.820;4.336;2023-12-22T11:51:00;4.60;;;1.42;;
23519;SDS011;11936;50.820;4.336;2023-12-22T11:53:29;5.00;;;1.30;;
23519;SDS011;11936;50.820;4.336;2023-12-22T11:55:59;1.10;;;1.00;;
23519;SDS011;11936;50.820;4.336;2023-12-22T12:03:37;2.80;;;1.13;;
23519;SDS011;11936;50.820;4.336;2023-12-22T12:08:43;2.60;;;1.27;;
23519;SDS011;11936;50.820;4.336;2023-12-22T12:11:09;6.20;;;1.23;;
23519;SDS011;11936;50.820;4.336;2023-12-22T12:13:35;4.93;;;1.50;;
23519;SDS011;11936;50.820;4.336;2023-12-22T12:16:06;2.00;;;1.10;;
23519;SDS011;11936;50.820;4.336;2023-12-22T12:18:32;3.83;;;1.20;;
23519;SDS011;11936;50.820;4.336;2023-12-22T12:20:59;1.55;;;0.85;;
23519;SDS011;11936;50.820;4.336;2023-12-22T12:23:28;4.15;;;1.20;;
23519;SDS011;11936;50.820;4.336;2023-12-22T12:25:55;5.15;;;1.48;;
23519;SDS011;11936;50.820;4.336;2023-12-22T12:28:28;3.22;;;1.17;;
23519;SDS011;11936;50.820;4.336;2023-12-22T12:31:05;2.03;;;1.00;;
23519;SDS011;11936;50.820;4.336;2023-12-22T12:33:33;4.82;;;1.08;;
23519;SDS011;11936;50.820;4.336;2023-12-22T12:36:00;5.77;;;1.17;;
23519;SDS011;11936;50.820;4.336;2023-12-22T12:39:14;2.90;;;1.70;;
23519;SDS011;11936;50.820;4.336;2023-12-22T12:41:31;4.35;;;1.08;;
23519;SDS011;11936;50.820;4.336;2023-12-22T12:43:58;3.20;;;1.30;;
23519;SDS011;11936;50.820;4.336;2023-12-22T12:46:31;8.18;;;1.60;;
23519;SDS011;11936;50.820;4.336;2023-12-22T12:49:05;5.65;;;1.15;;
23519;SDS011;11936;50.820;4.336;2023-12-22T12:51:37;4.45;;;1.20;;
23519;SDS011;11936;50.820;4.336;2023-12-22T12:54:04;5.07;;;1.30;;
23519;SDS011;11936;50.820;4.336;2023-12-22T12:56:51;5.68;;;1.50;;
23519;SDS011;11936;50.820;4.336;2023-12-22T12:59:17;7.38;;;1.30;;
23519;SDS011;11936;50.820;4.336;2023-12-22T13:01:46;2.45;;;1.00;;
23519;SDS011;11936;50.820;4.336;2023-12-22T13:04:13;3.03;;;0.88;;
23519;SDS011;11936;50.820;4.336;2023-12-22T13:06:45;2.58;;;0.88;;
23519;SDS011;11936;50.820;4.336;2023-12-22T13:09:12;4.55;;;1.52;;
23519;SDS011;11936;50.820;4.336;2023-12-22T13:11:38;6.93;;;1.20;;
23519;SDS011;11936;50.820;4.336;2023-12-22T13:14:07;4.28;;;1.58;;
23519;SDS011;11936;50.820;4.336;2023-12-22T13:16:33;3.50;;;1.10;;
23519;SDS011;11936;50.820;4.336;2023-12-22T13:18:59;7.28;;;1.30;;
23519;SDS011;11936;50.820;4.336;2023-12-22T13:21:25;3.20;;;1.17;;
23519;SDS011;11936;50.820;4.336;2023-12-22T13:26:37;4.13;;;1.30;;
23519;SDS011;11936;50.820;4.336;2023-12-22T13:29:07;2.63;;;1.00;;
23519;SDS011;11936;50.820;4.336;2023-12-22T13:31:36;2.70;;;1.23;;
23519;SDS011;11936;50.820;4.336;2023-12-22T13:34:12;4.68;;;1.65;;
23519;SDS011;11936;50.820;4.336;2023-12-22T13:36:41;3.60;;;1.10;;
23519;SDS011;11936;50.820;4.336;2023-12-22T13:39:08;4.45;;;2.03;;
23519;SDS011;11936;50.820;4.336;2023-12-22T13:41:34;4.80;;;1.30;;
23519;SDS011;11936;50.820;4.336;2023-12-22T13:46:32;3.17;;;0.95;;
23519;SDS011;11936;50.820;4.336;2023-12-22T13:49:00;3.45;;;1.00;;
23519;SDS011;11936;50.820;4.336;2023-12-22T13:51:26;7.55;;;1.20;;
23519;SDS011;11936;50.820;4.336;2023-12-22T13:53:52;3.30;;;2.13;;
23519;SDS011;11936;50.820;4.336;2023-12-22T13:56:17;2.70;;;1.27;;
23519;SDS011;11936;50.820;4.336;2023-12-22T13:58:46;3.63;;;1.17;;
23519;SDS011;11936;50.820;4.336;2023-12-22T14:01:15;9.77;;;1.25;;
23519;SDS011;11936;50.820;4.336;2023-12-22T14:03:41;7.18;;;1.52;;
23519;SDS011;11936;50.820;4.336;2023-12-22T14:06:11;4.30;;;1.23;;
23519;SDS011;11936;50.820;4.336;2023-12-22T14:08:40;3.15;;;0.95;;
23519;SDS011;11936;50.820;4.336;2023-12-22T14:11:06;5.93;;;1.17;;
23519;SDS011;11936;50.820;4.336;2023-12-22T14:13:32;2.70;;;1.10;;
23519;SDS011;11936;50.820;4.336;2023-12-22T14:16:00;2.27;;;1.20;;
23519;SDS011;11936;50.820;4.336;2023-12-22T14:18:26;2.40;;;1.00;;
23519;SDS011;11936;50.820;4.336;2023-12-22T14:20:51;2.08;;;1.13;;
23519;SDS011;11936;50.820;4.336;2023-12-22T14:23:17;4.07;;;1.52;;
23519;SDS011;11936;50.820;4.336;2023-12-22T14:25:43;7.30;;;1.52;;
23519;SDS011;11936;50.820;4.336;2023-12-22T14:28:08;3.40;;;1.10;;
23519;SDS011;11936;50.820;4.336;2023-12-22T14:30:34;4.97;;;1.55;;
23519;SDS011;11936;50.820;4.336;2023-12-22T14:33:00;1.45;;;1.02;;
23519;SDS011;11936;50.820;4.336;2023-12-22T14:35:25;2.80;;;0.95;;
23519;SDS011;11936;50.820;4.336;2023-12-22T14:37:51;5.30;;;1.20;;
23519;SDS011;11936;50.820;4.336;2023-12-22T14:40:16;2.42;;;0.90;;
23519;SDS011;11936;50.820;4.336;2023-12-22T14:42:43;3.33;;;1.30;;
23519;SDS011;11936;50.820;4.336;2023-12-22T14:45:08;3.65;;;0.95;;
23519;SDS011;11936;50.820;4.336;2023-12-22T14:47:34;3.58;;;1.35;;
23519;SDS011;11936;50.820;4.336;2023-12-22T14:50:00;5.88;;;1.20;;
23519;SDS011;11936;50.820;4.336;2023-12-22T14:52:30;3.83;;;1.33;;
23519;SDS011;11936;50.820;4.336;2023-12-22T14:54:57;4.15;;;1.35;;
23519;SDS011;11936;50.820;4.336;2023-12-22T14:57:23;3.80;;;1.48;;
23519;SDS011;11936;50.820;4.336;2023-12-22T14:59:49;3.63;;;1.15;;
23519;SDS011;11936;50.820;4.336;2023-12-22T15:02:14;4.13;;;1.30;;
23519;SDS011;11936;50.820;4.336;2023-12-22T15:04:40;4.93;;;1.15;;
23519;SDS011;11936;50.820;4.336;2023-12-22T15:07:06;4.93;;;1.20;;